createdAt,value
2022-12-28T00:00:19.534Z,19.83
2022-12-28T00:02:48.824Z,25.40
2022-12-28T00:05:18.745Z,25.23
2022-12-28T00:07:47.996Z,19.60
2022-12-28T00:10:17.946Z,30.20
2022-12-28T00:13:08.572Z,25.60
2022-12-28T00:15:39.487Z,24.90
2022-12-28T00:18:09.118Z,23.60
2022-12-28T00:20:38.361Z,25.17
2022-12-28T00:23:08.116Z,22.40
2022-12-28T00:25:37.536Z,28.80
2022-12-28T00:28:08.910Z,24.63
2022-12-28T00:30:38.112Z,28.57
2022-12-28T00:33:07.280Z,30.40
2022-12-28T00:35:36.670Z,22.13
2022-12-28T00:38:05.944Z,25.10
2022-12-28T00:40:35.302Z,20.83
2022-12-28T00:43:04.510Z,23.70
2022-12-28T00:45:35.236Z,24.83
2022-12-28T00:48:04.508Z,22.43
2022-12-28T00:50:33.724Z,25.33
2022-12-28T00:53:03.538Z,31.97
2022-12-28T00:55:33.354Z,30.03
2022-12-28T00:58:03.022Z,23.97
2022-12-28T01:00:33.116Z,20.23
2022-12-28T01:03:03.877Z,25.57
2022-12-28T01:05:33.494Z,23.80
2022-12-28T01:08:02.764Z,24.03
2022-12-28T01:10:32.029Z,25.50
2022-12-28T01:13:01.407Z,19.07
2022-12-28T01:15:30.728Z,20.83
2022-12-28T01:17:59.837Z,24.40
2022-12-28T01:20:31.102Z,28.87
2022-12-28T01:23:00.298Z,19.37
2022-12-28T01:25:29.402Z,21.43
2022-12-28T01:27:59.739Z,22.70
2022-12-28T01:30:30.519Z,22.27
2022-12-28T01:33:01.800Z,22.37
2022-12-28T01:35:32.449Z,23.40
2022-12-28T01:38:01.809Z,23.30
2022-12-28T01:40:31.401Z,23.37
2022-12-28T01:43:00.555Z,27.70
2022-12-28T01:45:29.852Z,20.80
2022-12-28T01:47:59.682Z,25.27
2022-12-28T01:50:30.192Z,25.20
2022-12-28T01:53:04.900Z,27.43
2022-12-28T01:55:36.892Z,25.17
2022-12-28T01:58:08.073Z,19.83
2022-12-28T02:00:37.823Z,19.87
2022-12-28T02:03:09.727Z,25.93
2022-12-28T02:05:40.880Z,20.40
2022-12-28T02:08:13.918Z,22.67
2022-12-28T02:10:46.053Z,20.87
2022-12-28T02:13:19.341Z,24.63
2022-12-28T02:15:49.758Z,21.70
2022-12-28T02:18:20.280Z,19.30
2022-12-28T02:21:09.593Z,19.37
2022-12-28T02:23:48.128Z,19.80
2022-12-28T02:26:42.898Z,22.20
2022-12-28T02:29:28.807Z,17.07
2022-12-28T02:32:02.380Z,21.27
2022-12-28T02:34:34.886Z,19.17
2022-12-28T02:37:08.182Z,22.23
2022-12-28T02:39:40.529Z,15.33
2022-12-28T02:42:11.090Z,18.90
2022-12-28T02:44:59.470Z,21.17
2022-12-28T02:47:46.744Z,19.57
2022-12-28T02:50:17.871Z,19.57
2022-12-28T02:53:04.750Z,20.50
2022-12-28T02:55:59.873Z,15.70
2022-12-28T02:58:40.577Z,15.93
2022-12-28T03:01:17.886Z,19.77
2022-12-28T03:03:52.811Z,16.10
2022-12-28T03:06:43.359Z,16.30
2022-12-28T03:09:15.861Z,16.10
2022-12-28T03:11:50.835Z,16.90
2022-12-28T03:14:22.637Z,21.63
2022-12-28T03:17:13.050Z,14.10
2022-12-28T03:20:02.046Z,10.27
2022-12-28T03:22:50.295Z,18.20
2022-12-28T03:25:39.313Z,15.00
2022-12-28T03:28:28.860Z,14.40
2022-12-28T03:31:06.943Z,22.30
2022-12-28T03:33:43.775Z,20.87
2022-12-28T03:36:17.691Z,19.20
2022-12-28T03:38:51.689Z,18.80
2022-12-28T03:41:23.998Z,17.13
2022-12-28T03:43:56.842Z,21.30
2022-12-28T03:46:30.489Z,17.90
2022-12-28T03:49:01.701Z,22.77
2022-12-28T03:51:32.992Z,15.57
2022-12-28T03:54:08.014Z,21.30
2022-12-28T03:56:37.252Z,19.47
2022-12-28T03:59:06.468Z,16.20
2022-12-28T04:01:42.102Z,15.47
2022-12-28T04:04:13.353Z,15.03
2022-12-28T04:06:44.195Z,14.33
2022-12-28T04:09:13.486Z,17.80
2022-12-28T04:11:43.904Z,22.33
2022-12-28T04:14:21.174Z,23.80
2022-12-28T04:16:51.535Z,11.77
2022-12-28T04:19:23.893Z,14.70
2022-12-28T04:21:54.428Z,14.80
2022-12-28T04:24:23.822Z,15.10
2022-12-28T04:26:53.072Z,21.80
2022-12-28T04:29:22.360Z,15.17
2022-12-28T04:32:00.438Z,16.87
2022-12-28T04:34:31.116Z,19.97
2022-12-28T04:37:07.225Z,21.07
2022-12-28T04:39:56.204Z,22.13
2022-12-28T04:42:26.094Z,18.77
2022-12-28T04:44:55.483Z,15.80
2022-12-28T04:47:24.689Z,15.40
2022-12-28T04:49:55.313Z,15.40
2022-12-28T04:52:24.623Z,16.37
2022-12-28T04:54:53.833Z,24.93
2022-12-28T04:57:23.027Z,15.00
2022-12-28T04:59:52.213Z,17.80
2022-12-28T05:02:21.551Z,18.30
2022-12-28T05:04:51.215Z,13.60
2022-12-28T05:07:21.913Z,14.87
2022-12-28T05:09:51.040Z,15.30
2022-12-28T05:12:20.394Z,15.07
2022-12-28T05:14:49.576Z,19.03
2022-12-28T05:17:19.206Z,15.43
2022-12-28T05:19:48.418Z,20.43
2022-12-28T05:22:18.243Z,16.73
2022-12-28T05:24:49.007Z,12.80
2022-12-28T05:27:18.234Z,12.57
2022-12-28T05:29:47.579Z,15.63
2022-12-28T05:32:16.851Z,12.73
2022-12-28T05:34:46.046Z,12.93
2022-12-28T05:37:20.214Z,15.77
2022-12-28T05:39:52.682Z,15.43
2022-12-28T05:42:21.877Z,18.27
2022-12-28T05:44:51.139Z,31.17
2022-12-28T05:47:20.314Z,18.57
2022-12-28T05:49:49.961Z,13.23
2022-12-28T05:52:19.224Z,12.33
2022-12-28T05:54:48.492Z,14.00
2022-12-28T05:57:19.033Z,10.30
2022-12-28T05:59:48.209Z,18.93
2022-12-28T06:02:21.622Z,13.57
2022-12-28T06:04:54.071Z,17.47
2022-12-28T06:07:23.473Z,19.10
2022-12-28T06:09:52.695Z,15.67
2022-12-28T06:12:23.282Z,12.77
2022-12-28T06:14:52.635Z,16.10
2022-12-28T06:17:21.803Z,13.47
2022-12-28T06:19:51.155Z,18.50
2022-12-28T06:22:20.241Z,16.47
2022-12-28T06:24:49.495Z,14.20
2022-12-28T06:27:19.096Z,16.97
2022-12-28T06:29:49.629Z,14.07
2022-12-28T06:32:18.799Z,14.97
2022-12-28T06:34:48.183Z,12.07
2022-12-28T06:37:17.333Z,14.93
2022-12-28T06:39:46.538Z,18.47
2022-12-28T06:42:15.724Z,14.63
2022-12-28T06:44:45.032Z,15.50
2022-12-28T06:47:15.668Z,15.13
2022-12-28T06:49:44.871Z,21.30
2022-12-28T06:52:14.091Z,21.63
2022-12-28T06:54:43.351Z,13.43
2022-12-28T06:57:12.900Z,26.20
2022-12-28T06:59:42.164Z,21.33
2022-12-28T07:02:11.682Z,18.80
2022-12-28T07:04:42.535Z,16.70
2022-12-28T07:07:11.676Z,31.83
2022-12-28T07:09:40.883Z,19.67
2022-12-28T07:12:10.194Z,20.93
2022-12-28T07:14:39.751Z,22.30
2022-12-28T07:17:08.900Z,12.70
2022-12-28T07:19:38.155Z,11.80
2022-12-28T07:22:08.806Z,16.83
2022-12-28T07:24:38.137Z,15.60
2022-12-28T07:27:07.638Z,15.30
2022-12-28T07:29:36.930Z,16.30
2022-12-28T07:32:06.304Z,19.80
2022-12-28T07:34:35.668Z,19.57
2022-12-28T07:37:04.813Z,20.77
2022-12-28T07:39:36.773Z,24.17
2022-12-28T07:42:08.446Z,17.20
2022-12-28T07:44:38.363Z,14.20
2022-12-28T07:47:08.066Z,18.30
2022-12-28T07:49:37.312Z,23.80
2022-12-28T07:52:06.706Z,16.30
2022-12-28T07:54:37.366Z,13.90
2022-12-28T07:57:06.683Z,18.67
2022-12-28T07:59:36.047Z,22.73
2022-12-28T08:02:05.483Z,18.07
2022-12-28T08:04:34.708Z,25.83
2022-12-28T08:07:03.987Z,23.30
2022-12-28T08:09:33.242Z,15.70
2022-12-28T08:12:03.900Z,19.33
2022-12-28T08:14:33.337Z,20.23
2022-12-28T08:17:02.643Z,33.47
2022-12-28T08:19:31.771Z,23.57
2022-12-28T08:22:01.997Z,25.60
2022-12-28T08:24:31.853Z,23.17
2022-12-28T08:27:01.052Z,21.87
2022-12-28T08:29:31.878Z,22.60
2022-12-28T08:32:01.236Z,26.50
2022-12-28T08:34:31.018Z,26.60
2022-12-28T08:37:00.287Z,31.60
2022-12-28T08:39:29.528Z,37.80
2022-12-28T08:41:58.653Z,39.70
2022-12-28T08:44:28.541Z,43.53
2022-12-28T08:46:59.240Z,29.73
2022-12-28T08:49:28.653Z,33.57
2022-12-28T08:51:58.486Z,29.50
2022-12-28T08:54:27.813Z,25.93
2022-12-28T08:56:57.029Z,34.83
2022-12-28T08:59:26.419Z,31.47
2022-12-28T09:01:55.704Z,33.93
2022-12-28T09:04:26.365Z,26.70
2022-12-28T09:06:55.996Z,23.63
2022-12-28T09:09:25.257Z,35.10
2022-12-28T09:11:54.559Z,22.97
2022-12-28T09:14:24.719Z,25.73
2022-12-28T09:16:54.639Z,28.63
2022-12-28T09:19:24.408Z,24.80
2022-12-28T09:21:55.585Z,29.03
2022-12-28T09:24:24.944Z,25.73
2022-12-28T09:26:55.547Z,23.73
2022-12-28T09:29:24.959Z,16.40
2022-12-28T09:31:54.153Z,23.67
2022-12-28T09:34:35.534Z,19.83
2022-12-28T09:37:07.569Z,11.90
2022-12-28T09:39:37.040Z,17.57
2022-12-28T09:42:08.612Z,12.30
2022-12-28T09:44:42.418Z,12.77
2022-12-28T09:47:18.609Z,17.10
2022-12-28T09:49:54.534Z,15.93
2022-12-28T09:52:30.959Z,15.90
2022-12-28T09:55:07.146Z,10.67
2022-12-28T09:57:39.327Z,20.13
2022-12-28T10:00:10.034Z,15.50
2022-12-28T10:02:41.444Z,19.47
2022-12-28T10:05:11.137Z,20.27
2022-12-28T10:07:42.054Z,10.37
2022-12-28T10:10:15.448Z,26.53
2022-12-28T10:12:45.491Z,13.47
2022-12-28T10:15:14.986Z,32.00
2022-12-28T10:17:44.591Z,24.10
2022-12-28T10:20:18.174Z,10.13
2022-12-28T10:22:51.415Z,17.07
2022-12-28T10:25:22.304Z,23.30
2022-12-28T10:27:51.758Z,13.97
2022-12-28T10:30:24.220Z,26.07
2022-12-28T10:33:01.403Z,9.43
2022-12-28T10:35:33.561Z,12.20
2022-12-28T10:38:06.313Z,19.10
2022-12-28T10:40:37.252Z,25.40
2022-12-28T10:43:10.839Z,17.90
2022-12-28T10:45:42.066Z,28.40
2022-12-28T10:48:12.696Z,19.07
2022-12-28T10:50:43.872Z,22.23
2022-12-28T10:53:27.814Z,20.03
2022-12-28T10:56:03.785Z,25.13
2022-12-28T10:58:34.208Z,16.47
2022-12-28T11:01:05.039Z,19.83
2022-12-28T11:03:36.058Z,22.80
2022-12-28T11:06:17.881Z,23.93
2022-12-28T11:09:02.496Z,24.50
2022-12-28T11:11:31.791Z,27.73
2022-12-28T11:14:02.602Z,21.23
2022-12-28T11:16:33.466Z,25.67
2022-12-28T11:19:02.803Z,22.60
2022-12-28T11:21:32.094Z,23.50
2022-12-28T11:24:03.385Z,22.93
2022-12-28T11:26:32.740Z,28.03
2022-12-28T11:29:03.575Z,20.33
2022-12-28T11:31:35.795Z,30.60
2022-12-28T11:34:06.644Z,23.37
2022-12-28T11:36:42.232Z,22.47
2022-12-28T11:39:30.058Z,22.20
2022-12-28T11:44:52.157Z,18.83
2022-12-28T11:47:33.181Z,24.60
2022-12-28T11:50:21.117Z,22.10
2022-12-28T11:52:52.276Z,26.10
2022-12-28T11:55:39.988Z,21.63
2022-12-28T11:58:42.408Z,22.67
2022-12-28T12:01:13.836Z,20.17
2022-12-28T12:04:01.557Z,25.13
2022-12-28T12:06:45.988Z,27.43
2022-12-28T12:09:28.669Z,21.07
2022-12-28T12:11:59.273Z,27.73
2022-12-28T12:14:30.271Z,44.67
2022-12-28T12:17:04.235Z,33.50
2022-12-28T12:19:35.095Z,20.30
2022-12-28T12:22:05.290Z,28.40
2022-12-28T12:24:37.630Z,20.23
2022-12-28T12:27:15.723Z,22.23
2022-12-28T12:29:46.540Z,20.30
2022-12-28T12:32:19.800Z,17.50
2022-12-28T12:34:52.138Z,25.80
2022-12-28T12:37:36.963Z,23.97
2022-12-28T12:40:20.983Z,17.33
2022-12-28T12:42:58.205Z,28.83
2022-12-28T12:45:32.955Z,25.47
2022-12-28T12:48:15.362Z,23.17
2022-12-28T12:50:53.745Z,17.23
2022-12-28T12:53:28.352Z,21.30
2022-12-28T12:56:02.649Z,24.03
2022-12-28T12:58:35.362Z,22.20
2022-12-28T13:01:17.254Z,21.23
2022-12-28T13:03:48.679Z,17.67
2022-12-28T13:06:19.008Z,16.10
2022-12-28T13:08:50.337Z,24.07
2022-12-28T13:11:21.043Z,21.03
2022-12-28T13:13:51.403Z,20.27
2022-12-28T13:16:22.401Z,15.17
2022-12-28T13:18:56.723Z,29.03
2022-12-28T13:21:26.713Z,15.07
2022-12-28T13:23:56.023Z,17.43
2022-12-28T13:26:28.437Z,15.07
2022-12-28T13:28:58.958Z,18.93
2022-12-28T13:31:34.488Z,23.53
2022-12-28T13:34:06.698Z,17.23
2022-12-28T13:36:36.090Z,22.60
2022-12-28T13:39:13.434Z,20.17
2022-12-28T13:41:47.650Z,21.87
2022-12-28T13:44:20.097Z,20.00
2022-12-28T13:46:51.920Z,16.33
2022-12-28T13:49:23.173Z,19.43
2022-12-28T13:51:53.693Z,10.80
2022-12-28T13:54:25.306Z,14.13
2022-12-28T13:57:14.657Z,17.70
2022-12-28T13:59:46.464Z,13.00
2022-12-28T14:02:17.768Z,20.87
2022-12-28T14:04:53.613Z,12.30
2022-12-28T14:07:25.251Z,16.73
2022-12-28T14:09:55.058Z,14.83
2022-12-28T14:12:24.401Z,15.70
2022-12-28T14:14:53.822Z,27.40
2022-12-28T14:17:24.276Z,19.73
2022-12-28T14:19:57.439Z,16.60
2022-12-28T14:22:27.519Z,19.87
2022-12-28T14:25:03.640Z,24.70
2022-12-28T14:27:36.579Z,19.07
2022-12-28T14:30:07.124Z,20.53
2022-12-28T14:32:42.568Z,27.53
2022-12-28T14:35:20.365Z,18.20
2022-12-28T14:37:53.025Z,20.20
2022-12-28T14:40:26.507Z,25.00
2022-12-28T14:42:56.558Z,22.60
2022-12-28T14:46:05.050Z,22.77
2022-12-28T14:48:32.780Z,20.87
2022-12-28T14:51:04.550Z,19.70
2022-12-28T14:53:34.403Z,18.37
2022-12-28T14:56:06.061Z,27.03
2022-12-28T14:58:40.560Z,24.17
2022-12-28T15:01:11.726Z,20.10
2022-12-28T15:03:50.806Z,20.80
2022-12-28T15:06:22.066Z,22.53
2022-12-28T15:08:52.108Z,27.90
2022-12-28T15:11:21.504Z,16.20
2022-12-28T15:13:50.961Z,21.50
2022-12-28T15:16:21.150Z,24.37
2022-12-28T15:18:50.580Z,23.70
2022-12-28T15:21:22.665Z,21.17
2022-12-28T15:23:52.226Z,28.57
2022-12-28T15:26:21.714Z,20.30
2022-12-28T15:28:51.091Z,19.47
2022-12-28T15:31:21.051Z,16.93
2022-12-28T15:33:50.584Z,19.80
2022-12-28T15:36:22.862Z,29.87
2022-12-28T15:38:52.106Z,25.57
2022-12-28T15:41:38.856Z,22.60
2022-12-28T15:44:08.202Z,21.07
2022-12-28T15:46:37.467Z,24.43
2022-12-28T15:49:07.484Z,23.87
2022-12-28T15:51:38.037Z,20.90
2022-12-28T15:54:07.475Z,21.67
2022-12-28T15:56:37.380Z,19.77
2022-12-28T15:59:07.807Z,27.37
2022-12-28T16:01:37.077Z,20.77
2022-12-28T16:04:07.060Z,25.03
2022-12-28T16:06:43.954Z,34.07
2022-12-28T16:09:14.953Z,18.80
2022-12-28T16:11:45.008Z,24.43
2022-12-28T16:14:16.416Z,23.97
2022-12-28T16:16:46.162Z,20.83
2022-12-28T16:19:16.129Z,21.33
2022-12-28T16:21:47.007Z,31.93
2022-12-28T16:24:16.340Z,23.10
2022-12-28T16:26:45.652Z,31.90
2022-12-28T16:29:15.198Z,30.77
2022-12-28T16:31:44.468Z,32.93
2022-12-28T16:34:15.119Z,29.93
2022-12-28T16:36:44.741Z,22.63
2022-12-28T16:39:16.681Z,22.80
2022-12-28T16:41:46.722Z,24.40
2022-12-28T16:44:16.836Z,21.00
2022-12-28T16:46:46.195Z,21.97
2022-12-28T16:49:15.672Z,29.20
2022-12-28T16:51:45.661Z,25.97
2022-12-28T16:54:18.059Z,24.47
2022-12-28T16:56:48.039Z,25.10
2022-12-28T16:59:17.604Z,19.40
2022-12-28T17:01:47.278Z,22.53
2022-12-28T17:04:16.671Z,21.63
2022-12-28T17:06:46.729Z,26.23
2022-12-28T17:09:17.353Z,28.60
2022-12-28T17:11:48.250Z,31.03
2022-12-28T17:14:29.179Z,27.93
2022-12-28T17:17:05.759Z,21.90
2022-12-28T17:19:35.100Z,20.97
2022-12-28T17:22:04.918Z,21.90
2022-12-28T17:24:35.922Z,24.47
2022-12-28T17:27:08.505Z,19.83
2022-12-28T17:29:40.468Z,20.03
2022-12-28T17:32:09.913Z,25.50
2022-12-28T17:34:39.646Z,27.70
2022-12-28T17:37:09.102Z,19.17
2022-12-28T17:39:40.729Z,25.03
2022-12-28T17:42:10.801Z,20.90
2022-12-28T17:44:40.075Z,20.73
2022-12-28T17:47:09.441Z,23.40
2022-12-28T17:49:38.636Z,25.73
2022-12-28T17:52:08.553Z,23.80
2022-12-28T17:54:39.248Z,26.80
2022-12-28T17:57:10.112Z,23.53
2022-12-28T17:59:39.290Z,21.70
2022-12-28T18:02:11.728Z,11.70
2022-12-28T18:04:41.769Z,23.57
2022-12-28T18:07:11.230Z,23.40
2022-12-28T18:09:41.932Z,15.00
2022-12-28T18:12:11.125Z,15.70
2022-12-28T18:14:40.435Z,18.50
2022-12-28T18:17:09.698Z,18.90
2022-12-28T18:19:39.331Z,16.27
2022-12-28T18:22:08.473Z,21.10
2022-12-28T18:24:37.782Z,23.17
2022-12-28T18:27:08.650Z,23.33
2022-12-28T18:29:38.093Z,22.97
2022-12-28T18:32:07.425Z,27.50
2022-12-28T18:34:36.688Z,18.30
2022-12-28T18:37:05.873Z,22.57
2022-12-28T18:39:35.275Z,18.17
2022-12-28T18:42:04.911Z,28.63
2022-12-28T18:44:35.894Z,17.33
2022-12-28T18:47:05.160Z,26.77
2022-12-28T18:49:34.391Z,24.73
2022-12-28T18:52:03.682Z,24.10
2022-12-28T18:54:32.918Z,24.53
2022-12-28T18:57:02.518Z,21.27
2022-12-28T18:59:31.870Z,21.77
2022-12-28T19:02:07.375Z,32.43
2022-12-28T19:04:37.228Z,26.33
2022-12-28T19:07:06.696Z,19.87
2022-12-28T19:09:35.912Z,23.20
2022-12-28T19:12:05.344Z,22.40
2022-12-28T19:14:34.560Z,25.97
2022-12-28T19:17:05.187Z,22.53
2022-12-28T19:19:34.496Z,26.73
2022-12-28T19:22:03.730Z,22.00
2022-12-28T19:24:32.955Z,34.20
2022-12-28T19:27:02.243Z,27.23
2022-12-28T19:29:32.493Z,32.33
2022-12-28T19:32:01.745Z,29.60
2022-12-28T19:34:32.660Z,29.03
2022-12-28T19:37:02.045Z,29.63
2022-12-28T19:39:31.251Z,23.33
2022-12-28T19:42:00.444Z,27.87
2022-12-28T19:44:29.632Z,27.80
2022-12-28T19:46:59.619Z,29.87
2022-12-28T19:49:28.865Z,29.23
2022-12-28T19:51:59.639Z,26.07
2022-12-28T19:54:28.902Z,30.03
2022-12-28T19:56:58.255Z,25.73
2022-12-28T19:59:27.709Z,31.80
2022-12-28T20:01:57.184Z,31.37
2022-12-28T20:04:26.548Z,24.20
2022-12-28T20:06:55.862Z,29.60
2022-12-28T20:09:26.481Z,23.30
2022-12-28T20:11:55.745Z,31.83
2022-12-28T20:14:25.406Z,30.00
2022-12-28T20:16:54.603Z,33.27
2022-12-28T20:19:23.788Z,33.13
2022-12-28T20:21:53.483Z,31.67
2022-12-28T20:24:22.617Z,32.07
2022-12-28T20:26:59.600Z,30.90
2022-12-28T20:29:30.640Z,39.30
2022-12-28T20:32:00.141Z,35.70
2022-12-28T20:34:29.459Z,30.07
2022-12-28T20:36:58.636Z,30.80
2022-12-28T20:39:28.223Z,34.80
2022-12-28T20:42:16.428Z,34.00
2022-12-28T20:44:45.823Z,36.60
2022-12-28T20:47:15.341Z,40.60
2022-12-28T20:49:44.615Z,30.60
2022-12-28T20:52:13.909Z,33.93
2022-12-28T20:54:43.317Z,39.27
2022-12-28T20:57:13.940Z,30.93
2022-12-28T20:59:43.295Z,31.83
2022-12-28T21:02:12.585Z,31.00
2022-12-28T21:04:41.806Z,30.47
2022-12-28T21:07:11.092Z,26.80
2022-12-28T21:09:40.353Z,30.27
2022-12-28T21:12:09.760Z,27.30
2022-12-28T21:14:40.386Z,32.37
2022-12-28T21:17:09.637Z,23.70
2022-12-28T21:19:38.859Z,27.47
2022-12-28T21:22:08.056Z,32.20
2022-12-28T21:24:38.349Z,25.03
2022-12-28T21:27:07.650Z,32.53
2022-12-28T21:29:37.508Z,27.17
2022-12-28T21:32:09.575Z,26.33
2022-12-28T21:34:38.966Z,29.00
2022-12-28T21:37:21.835Z,27.33
2022-12-28T21:39:51.185Z,31.70
2022-12-28T21:42:20.308Z,31.53
2022-12-28T21:44:49.431Z,33.77
2022-12-28T21:47:20.623Z,33.23
2022-12-28T21:49:50.240Z,33.80
2022-12-28T21:52:19.441Z,37.60
2022-12-28T21:54:48.676Z,37.53
2022-12-28T21:57:17.917Z,32.60
2022-12-28T21:59:47.661Z,31.37
2022-12-28T22:02:35.502Z,33.47
2022-12-28T22:05:24.409Z,35.43
2022-12-28T22:08:13.674Z,34.17
2022-12-28T22:11:00.293Z,31.07
2022-12-28T22:13:29.512Z,38.70
2022-12-28T22:15:58.996Z,45.17
2022-12-28T22:21:18.915Z,34.53
2022-12-28T22:23:48.199Z,36.50
2022-12-28T22:26:17.503Z,31.47
2022-12-28T22:28:46.732Z,30.43
2022-12-28T22:31:16.161Z,44.33
2022-12-28T22:33:45.404Z,34.03
2022-12-28T22:36:15.983Z,32.03
2022-12-28T22:38:46.918Z,24.40
2022-12-28T22:41:16.076Z,37.00
2022-12-28T22:43:45.444Z,37.83
2022-12-28T22:46:15.390Z,41.93
2022-12-28T22:48:44.637Z,34.83
2022-12-28T22:51:14.992Z,34.80
2022-12-28T22:53:44.401Z,33.83
2022-12-28T22:56:20.096Z,22.47
2022-12-28T22:58:49.459Z,27.53
2022-12-28T23:01:19.721Z,23.97
2022-12-28T23:03:49.688Z,36.50
2022-12-28T23:06:19.896Z,29.97
2022-12-28T23:08:49.540Z,33.93
2022-12-28T23:11:34.606Z,24.80
2022-12-28T23:14:17.982Z,29.40
2022-12-28T23:16:47.336Z,32.27
2022-12-28T23:19:45.830Z,25.73
2022-12-28T23:22:33.802Z,23.33
2022-12-28T23:25:20.426Z,26.03
2022-12-28T23:27:51.166Z,24.70
2022-12-28T23:30:21.248Z,23.37
2022-12-28T23:32:51.466Z,23.87
2022-12-28T23:35:21.328Z,20.50
2022-12-28T23:37:50.746Z,28.67
2022-12-28T23:40:20.701Z,21.83
2022-12-28T23:42:54.172Z,22.10
2022-12-28T23:45:24.152Z,24.43
2022-12-28T23:47:54.944Z,26.27
2022-12-28T23:50:24.402Z,20.37
2022-12-28T23:52:53.698Z,22.30
2022-12-28T23:55:22.950Z,26.90
2022-12-28T23:57:53.562Z,25.50
